createdAt,value
2024-02-12T00:02:00.632Z,8.70
2024-02-12T00:04:42.909Z,8.70
2024-02-12T00:07:27.885Z,8.70
2024-02-12T00:10:13.681Z,8.70
2024-02-12T00:12:56.359Z,8.70
2024-02-12T00:15:39.920Z,8.70
2024-02-12T00:18:24.752Z,8.70
2024-02-12T00:21:08.628Z,8.70
2024-02-12T00:23:52.201Z,8.70
2024-02-12T00:26:34.860Z,8.60
2024-02-12T00:29:17.577Z,8.60
2024-02-12T00:31:59.979Z,8.60
2024-02-12T00:34:42.572Z,8.60
2024-02-12T00:37:26.400Z,8.50
2024-02-12T00:40:09.915Z,8.50
2024-02-12T00:42:52.433Z,8.60
2024-02-12T00:45:34.963Z,8.60
2024-02-12T00:48:17.397Z,8.50
2024-02-12T00:51:00.379Z,8.50
2024-02-12T00:53:43.997Z,8.50
2024-02-12T00:56:26.838Z,8.40
2024-02-12T00:59:10.120Z,8.40
2024-02-12T01:01:53.003Z,8.40
2024-02-12T01:04:35.585Z,8.40
2024-02-12T01:07:18.547Z,8.30
2024-02-12T01:10:02.217Z,8.30
2024-02-12T01:12:45.675Z,8.30
2024-02-12T01:15:28.037Z,8.30
2024-02-12T01:18:11.689Z,8.30
2024-02-12T01:20:54.538Z,8.20
2024-02-12T01:23:37.674Z,8.20
2024-02-12T01:26:20.501Z,8.30
2024-02-12T01:29:07.157Z,8.30
2024-02-12T01:31:49.575Z,8.20
2024-02-12T01:34:32.255Z,8.30
2024-02-12T01:37:14.610Z,8.30
2024-02-12T01:39:57.261Z,8.20
2024-02-12T01:42:39.887Z,8.20
2024-02-12T01:45:28.269Z,8.20
2024-02-12T01:48:12.108Z,8.20
2024-02-12T01:50:54.945Z,8.20
2024-02-12T01:53:38.878Z,8.20
2024-02-12T01:56:22.474Z,8.20
2024-02-12T01:59:07.406Z,8.20
2024-02-12T02:01:50.109Z,8.20
2024-02-12T02:04:33.996Z,8.10
2024-02-12T02:07:20.784Z,8.10
2024-02-12T02:10:05.531Z,8.10
2024-02-12T02:12:49.260Z,8.10
2024-02-12T02:15:31.555Z,8.00
2024-02-12T02:18:14.245Z,8.00
2024-02-12T02:20:57.915Z,8.00
2024-02-12T02:23:41.755Z,8.00
2024-02-12T02:26:25.084Z,8.00
2024-02-12T02:29:07.629Z,7.90
2024-02-12T02:31:49.923Z,7.90
2024-02-12T02:34:32.784Z,7.90
2024-02-12T02:37:16.480Z,7.90
2024-02-12T02:39:59.082Z,7.90
2024-02-12T02:42:41.296Z,7.80
2024-02-12T02:45:26.286Z,7.90
2024-02-12T02:48:08.958Z,7.80
2024-02-12T02:50:51.565Z,7.80
2024-02-12T02:53:34.416Z,7.80
2024-02-12T02:56:17.737Z,7.80
2024-02-12T02:59:01.040Z,7.80
2024-02-12T03:01:44.094Z,7.80
2024-02-12T03:04:26.361Z,7.70
2024-02-12T03:07:10.876Z,7.70
2024-02-12T03:09:53.340Z,7.70
2024-02-12T03:12:35.960Z,7.70
2024-02-12T03:15:20.574Z,7.70
2024-02-12T03:18:06.178Z,7.70
2024-02-12T03:20:50.318Z,7.70
2024-02-12T03:23:33.734Z,7.60
2024-02-12T03:26:19.120Z,7.60
2024-02-12T03:29:01.782Z,7.60
2024-02-12T03:31:44.690Z,7.60
2024-02-12T03:34:30.817Z,7.60
2024-02-12T03:37:20.000Z,7.60
2024-02-12T03:40:06.161Z,7.60
2024-02-12T03:42:51.152Z,7.60
2024-02-12T03:45:35.379Z,7.60
2024-02-12T03:48:55.955Z,7.50
2024-02-12T03:51:57.300Z,7.50
2024-02-12T03:55:00.993Z,7.50
2024-02-12T03:58:03.513Z,7.50
2024-02-12T04:00:46.101Z,7.50
2024-02-12T04:03:29.202Z,7.40
2024-02-12T04:06:14.148Z,7.40
2024-02-12T04:08:57.076Z,7.40
2024-02-12T04:11:43.303Z,7.40
2024-02-12T04:14:25.902Z,7.40
2024-02-12T04:17:11.800Z,7.40
2024-02-12T04:19:54.497Z,7.40
2024-02-12T04:22:37.001Z,7.40
2024-02-12T04:25:20.873Z,7.40
2024-02-12T04:28:04.790Z,7.40
2024-02-12T04:30:48.729Z,7.40
2024-02-12T04:33:31.989Z,7.40
2024-02-12T04:36:17.816Z,7.40
2024-02-12T04:39:01.860Z,7.40
2024-02-12T04:41:46.710Z,7.40
2024-02-12T04:44:29.076Z,7.40
2024-02-12T04:47:11.734Z,7.40
2024-02-12T04:49:54.101Z,7.30
2024-02-12T04:52:36.680Z,7.40
2024-02-12T04:55:19.106Z,7.30
2024-02-12T04:58:02.339Z,7.30
2024-02-12T05:00:44.993Z,7.30
2024-02-12T05:03:27.766Z,7.30
2024-02-12T05:06:17.368Z,7.30
2024-02-12T05:09:03.264Z,7.30
2024-02-12T05:11:45.852Z,7.30
2024-02-12T05:14:29.308Z,7.30
2024-02-12T05:17:13.205Z,7.30
2024-02-12T05:20:14.660Z,7.30
2024-02-12T05:22:57.718Z,7.30
2024-02-12T05:25:40.513Z,7.30
2024-02-12T05:28:22.796Z,7.30
2024-02-12T05:31:05.462Z,7.20
2024-02-12T05:33:49.092Z,7.20
2024-02-12T05:36:34.644Z,7.20
2024-02-12T05:39:20.557Z,7.20
2024-02-12T05:42:03.346Z,7.20
2024-02-12T05:44:46.458Z,7.20
2024-02-12T05:47:29.370Z,7.20
2024-02-12T05:50:12.956Z,7.20
2024-02-12T05:52:55.990Z,7.20
2024-02-12T05:55:41.808Z,7.20
2024-02-12T05:58:28.311Z,7.20
2024-02-12T06:01:12.116Z,7.20
2024-02-12T06:03:54.947Z,7.20
2024-02-12T06:06:41.269Z,7.20
2024-02-12T06:09:24.710Z,7.20
2024-02-12T06:12:08.960Z,7.20
2024-02-12T06:14:51.676Z,7.20
2024-02-12T06:17:34.634Z,7.20
2024-02-12T06:20:17.437Z,7.20
2024-02-12T06:22:59.819Z,7.20
2024-02-12T06:25:43.727Z,7.20
2024-02-12T06:28:26.012Z,7.20
2024-02-12T06:31:08.642Z,7.20
2024-02-12T06:33:52.303Z,7.20
2024-02-12T06:36:35.009Z,7.20
2024-02-12T06:39:17.376Z,7.20
2024-02-12T06:41:59.952Z,7.20
2024-02-12T06:44:42.578Z,7.20
2024-02-12T06:47:25.336Z,7.20
2024-02-12T06:50:07.949Z,7.20
2024-02-12T06:52:51.018Z,7.20
2024-02-12T06:55:33.523Z,7.20
2024-02-12T06:58:16.260Z,7.20
2024-02-12T07:01:00.532Z,7.20
2024-02-12T07:03:46.089Z,7.20
2024-02-12T07:06:29.656Z,7.20
2024-02-12T07:09:12.288Z,7.20
2024-02-12T07:11:54.567Z,7.20
2024-02-12T07:14:37.323Z,7.20
2024-02-12T07:17:25.876Z,7.30
2024-02-12T07:20:13.339Z,7.20
2024-02-12T07:22:56.130Z,7.20
2024-02-12T07:25:38.882Z,7.30
2024-02-12T07:28:23.303Z,7.20
2024-02-12T07:31:09.595Z,7.20
2024-02-12T07:33:54.366Z,7.20
2024-02-12T07:36:42.901Z,7.30
2024-02-12T07:39:25.231Z,7.30
2024-02-12T07:42:09.018Z,7.30
2024-02-12T07:44:51.431Z,7.30
2024-02-12T07:47:37.784Z,7.30
2024-02-12T07:50:20.661Z,7.30
2024-02-12T07:53:04.545Z,7.30
2024-02-12T07:55:46.906Z,7.30
2024-02-12T07:58:29.645Z,7.40
2024-02-12T08:01:12.079Z,7.40
2024-02-12T08:03:54.744Z,7.40
2024-02-12T08:06:37.473Z,7.40
2024-02-12T08:09:20.205Z,7.40
2024-02-12T08:12:06.537Z,7.40
2024-02-12T08:14:50.230Z,7.40
2024-02-12T08:17:32.626Z,7.40
2024-02-12T08:20:17.911Z,7.40
2024-02-12T08:23:00.334Z,7.40
2024-02-12T08:25:43.448Z,7.40
2024-02-12T08:28:26.199Z,7.40
2024-02-12T08:31:09.238Z,7.40
2024-02-12T08:33:51.610Z,7.50
2024-02-12T08:36:34.335Z,7.50
2024-02-12T08:39:19.802Z,7.50
2024-02-12T08:42:05.314Z,7.50
2024-02-12T08:44:49.025Z,7.50
2024-02-12T08:47:31.942Z,7.60
2024-02-12T08:50:14.388Z,7.60
2024-02-12T08:52:56.971Z,7.60
2024-02-12T08:55:41.316Z,7.60
2024-02-12T08:58:23.965Z,7.60
2024-02-12T09:01:06.265Z,7.60
2024-02-12T09:03:50.010Z,7.60
2024-02-12T09:06:33.929Z,7.60
2024-02-12T09:09:16.985Z,7.60
2024-02-12T09:12:01.123Z,7.60
2024-02-12T09:14:43.741Z,7.60
2024-02-12T09:17:29.299Z,7.60
2024-02-12T09:20:15.844Z,7.60
2024-02-12T09:22:59.631Z,7.60
2024-02-12T09:25:42.644Z,7.60
2024-02-12T09:28:28.653Z,7.70
2024-02-12T09:31:11.701Z,7.70
2024-02-12T09:33:54.677Z,7.70
2024-02-12T09:36:43.616Z,7.70
2024-02-12T09:39:25.963Z,7.80
2024-02-12T09:42:09.010Z,7.80
2024-02-12T09:44:53.627Z,7.80
2024-02-12T09:47:37.685Z,7.80
2024-02-12T09:50:21.082Z,7.90
2024-02-12T09:53:05.253Z,7.80
2024-02-12T09:55:51.272Z,7.80
2024-02-12T09:58:34.540Z,7.80
2024-02-12T10:01:16.721Z,7.90
2024-02-12T10:03:59.587Z,7.90
2024-02-12T10:06:42.026Z,7.90
2024-02-12T10:09:25.624Z,8.00
2024-02-12T10:12:09.011Z,8.00
2024-02-12T10:14:54.709Z,8.00
2024-02-12T10:17:36.997Z,8.00
2024-02-12T10:20:22.023Z,8.00
2024-02-12T10:23:04.572Z,8.00
2024-02-12T10:25:50.250Z,8.10
2024-02-12T10:28:32.715Z,8.00
2024-02-12T10:31:16.521Z,8.00
2024-02-12T10:34:04.026Z,8.10
2024-02-12T10:36:49.542Z,8.10
2024-02-12T10:39:32.719Z,8.10
2024-02-12T10:42:23.165Z,8.10
2024-02-12T10:45:07.386Z,8.20
2024-02-12T10:47:50.320Z,8.30
2024-02-12T10:50:35.558Z,8.30
2024-02-12T10:53:18.433Z,8.40
2024-02-12T10:56:01.164Z,8.30
2024-02-12T10:58:45.928Z,8.30
2024-02-12T11:01:30.805Z,8.40
2024-02-12T11:04:17.369Z,8.40
2024-02-12T11:07:28.963Z,8.40
2024-02-12T11:10:19.906Z,8.40
2024-02-12T11:13:06.792Z,8.50
2024-02-12T11:15:54.342Z,8.40
2024-02-12T11:18:40.006Z,8.30
2024-02-12T11:21:24.377Z,8.40
2024-02-12T11:24:11.351Z,8.40
2024-02-12T11:26:54.189Z,8.50
2024-02-12T11:29:44.286Z,8.50
2024-02-12T11:32:27.012Z,8.60
2024-02-12T11:35:10.972Z,8.50
2024-02-12T11:37:58.192Z,8.50
2024-02-12T11:40:42.346Z,8.60
2024-02-12T11:43:24.986Z,8.60
2024-02-12T11:46:07.361Z,8.60
2024-02-12T11:48:51.191Z,8.60
2024-02-12T11:51:35.918Z,8.60
2024-02-12T11:54:18.878Z,8.60
2024-02-12T11:57:01.257Z,8.50
2024-02-12T11:59:43.870Z,8.50
2024-02-12T12:02:26.563Z,8.50
2024-02-12T12:05:12.754Z,8.50
2024-02-12T12:07:57.267Z,8.50
2024-02-12T12:10:41.851Z,8.60
2024-02-12T12:13:24.543Z,8.60
2024-02-12T12:16:07.445Z,8.60
2024-02-12T12:18:51.214Z,8.60
2024-02-12T12:21:35.503Z,8.60
2024-02-12T12:24:18.106Z,8.50
2024-02-12T12:27:01.128Z,8.50
2024-02-12T12:29:43.501Z,8.60
2024-02-12T12:32:26.501Z,8.70
2024-02-12T12:35:10.856Z,8.70
2024-02-12T12:37:54.120Z,8.70
2024-02-12T12:40:36.547Z,8.70
2024-02-12T12:43:19.929Z,8.70
2024-02-12T12:46:02.888Z,8.60
2024-02-12T12:48:46.691Z,8.60
2024-02-12T12:51:29.271Z,8.60
2024-02-12T12:54:12.917Z,8.60
2024-02-12T12:56:55.422Z,8.50
2024-02-12T12:59:38.275Z,8.50
2024-02-12T13:02:21.467Z,8.50
2024-02-12T13:05:04.347Z,8.50
2024-02-12T13:08:16.379Z,8.50
2024-02-12T13:10:50.479Z,8.50
2024-02-12T13:13:34.994Z,8.50
2024-02-12T13:16:17.629Z,8.40
2024-02-12T13:19:00.290Z,8.40
2024-02-12T13:21:44.266Z,8.40
2024-02-12T13:24:26.640Z,8.40
2024-02-12T13:27:11.601Z,8.30
2024-02-12T13:29:56.983Z,8.40
2024-02-12T13:32:39.745Z,8.40
2024-02-12T13:35:25.486Z,8.40
2024-02-12T13:38:08.401Z,8.40
2024-02-12T13:40:52.354Z,8.30
2024-02-12T13:43:35.501Z,8.30
2024-02-12T13:46:17.822Z,8.40
2024-02-12T13:49:20.775Z,8.40
2024-02-12T13:52:06.918Z,8.40
2024-02-12T13:54:56.502Z,8.40
2024-02-12T13:57:42.815Z,8.40
2024-02-12T14:00:44.086Z,8.40
2024-02-12T14:03:28.374Z,8.40
2024-02-12T14:06:12.332Z,8.30
2024-02-12T14:08:54.923Z,8.40
2024-02-12T14:11:37.957Z,8.40
2024-02-12T14:14:20.522Z,8.40
2024-02-12T14:17:03.661Z,8.40
2024-02-12T14:19:46.981Z,8.40
2024-02-12T14:22:29.738Z,8.40
2024-02-12T14:25:12.362Z,8.40
2024-02-12T14:27:56.094Z,8.40
2024-02-12T14:30:38.394Z,8.40
2024-02-12T14:33:22.718Z,8.40
2024-02-12T14:36:05.430Z,8.50
2024-02-12T14:38:49.431Z,8.50
2024-02-12T14:41:32.203Z,8.50
2024-02-12T14:44:25.243Z,8.50
2024-02-12T14:47:07.611Z,8.60
2024-02-12T14:49:50.726Z,8.50
2024-02-12T14:52:35.011Z,8.50
2024-02-12T14:55:19.830Z,8.50
2024-02-12T14:58:02.626Z,8.50
2024-02-12T15:00:45.268Z,8.50
2024-02-12T15:03:27.938Z,8.40
2024-02-12T15:06:11.263Z,8.40
2024-02-12T15:08:57.244Z,8.40
2024-02-12T15:11:39.954Z,8.40
2024-02-12T15:14:23.423Z,8.40
2024-02-12T15:17:06.313Z,8.40
2024-02-12T15:19:49.971Z,8.30
2024-02-12T15:22:33.106Z,8.30
2024-02-12T15:25:19.407Z,8.30
2024-02-12T15:28:05.794Z,8.30
2024-02-12T15:30:49.814Z,8.20
2024-02-12T15:33:33.167Z,8.20
2024-02-12T15:36:16.039Z,8.10
2024-02-12T15:39:00.310Z,8.10
2024-02-12T15:41:42.654Z,8.00
2024-02-12T15:44:25.767Z,8.00
2024-02-12T15:47:08.090Z,8.00
2024-02-12T15:49:53.224Z,8.00
2024-02-12T15:52:35.555Z,8.00
2024-02-12T15:55:18.282Z,8.00
2024-02-12T15:58:00.713Z,8.00
2024-02-12T16:00:45.535Z,7.90
2024-02-12T16:03:29.664Z,7.90
2024-02-12T16:06:15.413Z,7.90
2024-02-12T16:08:58.672Z,7.80
2024-02-12T16:11:42.769Z,7.80
2024-02-12T16:14:26.628Z,7.80
2024-02-12T16:17:12.256Z,7.80
2024-02-12T16:19:55.073Z,7.80
2024-02-12T16:22:38.313Z,7.70
2024-02-12T16:25:21.150Z,7.70
2024-02-12T16:28:04.404Z,7.70
2024-02-12T16:30:46.898Z,7.70
2024-02-12T16:33:29.674Z,7.70
2024-02-12T16:36:14.424Z,7.70
2024-02-12T16:38:57.122Z,7.70
2024-02-12T16:41:39.908Z,7.70
2024-02-12T16:44:22.529Z,7.60
2024-02-12T16:47:05.020Z,7.70
2024-02-12T16:49:47.929Z,7.70
2024-02-12T16:52:30.734Z,7.70
2024-02-12T16:55:13.298Z,7.60
2024-02-12T16:57:55.642Z,7.60
2024-02-12T17:00:40.241Z,7.60
2024-02-12T17:03:22.644Z,7.60
2024-02-12T17:06:05.790Z,7.60
2024-02-12T17:08:52.190Z,7.60
2024-02-12T17:11:37.224Z,7.60
2024-02-12T17:14:20.328Z,7.50
2024-02-12T17:17:03.111Z,7.50
2024-02-12T17:19:46.341Z,7.50
2024-02-12T17:22:29.790Z,7.50
2024-02-12T17:25:14.862Z,7.40
2024-02-12T17:27:58.588Z,7.40
2024-02-12T17:30:40.975Z,7.40
2024-02-12T17:33:23.839Z,7.30
2024-02-12T17:36:07.547Z,7.40
2024-02-12T17:38:51.040Z,7.40
2024-02-12T17:41:33.486Z,7.30
2024-02-12T17:44:16.106Z,7.30
2024-02-12T17:47:00.095Z,7.30
2024-02-12T17:49:49.075Z,7.30
2024-02-12T17:52:32.711Z,7.30
2024-02-12T17:55:16.610Z,7.30
2024-02-12T17:57:59.044Z,7.20
2024-02-12T18:00:42.833Z,7.20
2024-02-12T18:03:25.639Z,7.10
2024-02-12T18:06:09.505Z,7.00
2024-02-12T18:08:52.478Z,6.90
2024-02-12T18:11:35.116Z,6.90
2024-02-12T18:14:18.287Z,6.80
2024-02-12T18:17:00.917Z,6.70
2024-02-12T18:19:48.822Z,6.70
2024-02-12T18:22:34.060Z,6.60
2024-02-12T18:25:16.627Z,6.60
2024-02-12T18:27:59.904Z,6.60
2024-02-12T18:30:42.264Z,6.50
2024-02-12T18:33:25.210Z,6.50
2024-02-12T18:36:11.397Z,6.50
2024-02-12T18:38:55.271Z,6.50
2024-02-12T18:41:37.850Z,6.50
2024-02-12T18:44:20.659Z,6.60
2024-02-12T18:47:03.459Z,6.60
2024-02-12T18:49:46.244Z,6.60
2024-02-12T18:52:30.762Z,6.70
2024-02-12T18:55:14.377Z,6.70
2024-02-12T18:57:56.836Z,6.70
2024-02-12T19:00:40.920Z,6.60
2024-02-12T19:03:23.607Z,6.60
2024-02-12T19:06:09.764Z,6.60
2024-02-12T19:08:53.857Z,6.50
2024-02-12T19:11:36.693Z,6.50
2024-02-12T19:14:22.275Z,6.50
2024-02-12T19:17:05.670Z,6.40
2024-02-12T19:19:50.291Z,6.40
2024-02-12T19:22:34.568Z,6.50
2024-02-12T19:25:17.641Z,6.50
2024-02-12T19:28:00.373Z,6.50
2024-02-12T19:30:42.783Z,6.50
2024-02-12T19:33:26.178Z,6.50
2024-02-12T19:36:09.674Z,6.40
2024-02-12T19:38:52.428Z,6.40
2024-02-12T19:41:34.856Z,6.50
2024-02-12T19:44:19.827Z,6.40
2024-02-12T19:47:04.196Z,6.40
2024-02-12T19:49:46.952Z,6.40
2024-02-12T19:52:30.030Z,6.30
2024-02-12T19:55:12.878Z,6.30
2024-02-12T19:57:55.832Z,6.30
2024-02-12T20:00:38.602Z,6.20
2024-02-12T20:03:21.520Z,6.20
2024-02-12T20:06:07.779Z,6.10
2024-02-12T20:08:50.652Z,6.10
2024-02-12T20:11:34.597Z,6.10
2024-02-12T20:14:17.235Z,6.00
2024-02-12T20:17:00.056Z,6.00
2024-02-12T20:19:42.613Z,5.90
2024-02-12T20:22:25.651Z,5.80
2024-02-12T20:25:09.330Z,5.80
2024-02-12T20:27:53.212Z,5.70
2024-02-12T20:30:35.760Z,5.70
2024-02-12T20:33:18.778Z,5.80
2024-02-12T20:36:01.943Z,5.80
2024-02-12T20:38:44.916Z,5.80
2024-02-12T20:41:27.916Z,5.80
2024-02-12T20:44:12.095Z,5.80
2024-02-12T20:47:01.548Z,5.90
2024-02-12T20:49:44.194Z,5.90
2024-02-12T20:52:26.574Z,5.90
2024-02-12T20:55:12.665Z,6.00
2024-02-12T20:57:55.894Z,6.00
2024-02-12T21:00:40.408Z,6.00
2024-02-12T21:03:23.721Z,6.00
2024-02-12T21:06:08.600Z,6.00
2024-02-12T21:08:53.731Z,6.00
2024-02-12T21:11:36.492Z,6.00
2024-02-12T21:14:22.117Z,6.00
2024-02-12T21:17:05.306Z,6.00
2024-02-12T21:19:49.152Z,6.10
2024-02-12T21:22:31.900Z,6.10
2024-02-12T21:25:15.294Z,6.20
2024-02-12T21:27:59.331Z,6.20
2024-02-12T21:30:41.677Z,6.20
2024-02-12T21:33:24.572Z,6.20
2024-02-12T21:36:09.321Z,6.20
2024-02-12T21:38:52.036Z,6.20
2024-02-12T21:41:37.034Z,6.20
2024-02-12T21:44:23.060Z,6.20
2024-02-12T21:47:07.321Z,6.20
2024-02-12T21:49:53.360Z,6.20
2024-02-12T21:52:35.932Z,6.20
2024-02-12T21:55:19.761Z,6.30
2024-02-12T21:58:02.204Z,6.30
2024-02-12T22:00:47.596Z,6.30
2024-02-12T22:03:30.110Z,6.30
2024-02-12T22:06:12.981Z,6.40
2024-02-12T22:08:55.468Z,6.30
2024-02-12T22:11:38.185Z,6.40
2024-02-12T22:14:20.550Z,6.40
2024-02-12T22:17:03.204Z,6.40
2024-02-12T22:19:46.907Z,6.40
2024-02-12T22:22:29.592Z,6.40
2024-02-12T22:25:11.993Z,6.30
2024-02-12T22:27:57.407Z,6.30
2024-02-12T22:30:39.792Z,6.30
2024-02-12T22:33:23.988Z,6.30
2024-02-12T22:36:06.860Z,6.20
2024-02-12T22:38:49.548Z,6.20
2024-02-12T22:41:38.945Z,6.20
2024-02-12T22:44:21.612Z,6.20
2024-02-12T22:47:04.812Z,6.20
2024-02-12T22:49:49.916Z,6.20
2024-02-12T22:52:32.216Z,6.30
2024-02-12T22:55:16.658Z,6.30
2024-02-12T22:57:59.431Z,6.30
2024-02-12T23:00:45.530Z,6.20
2024-02-12T23:03:28.846Z,6.20
2024-02-12T23:06:12.209Z,6.20
2024-02-12T23:08:54.720Z,6.20
2024-02-12T23:11:37.402Z,6.30
2024-02-12T23:14:19.837Z,6.30
2024-02-12T23:17:02.458Z,6.30
2024-02-12T23:19:45.416Z,6.30
2024-02-12T23:22:28.477Z,6.30
2024-02-12T23:25:10.736Z,6.30
2024-02-12T23:27:53.571Z,6.30
2024-02-12T23:30:35.790Z,6.30
2024-02-12T23:33:19.471Z,6.20
2024-02-12T23:36:04.599Z,6.20
2024-02-12T23:38:52.186Z,6.20
2024-02-12T23:41:35.835Z,6.20
2024-02-12T23:44:19.632Z,6.20
2024-02-12T23:47:02.559Z,6.20
2024-02-12T23:49:45.149Z,6.20
2024-02-12T23:52:27.524Z,6.20
2024-02-12T23:55:10.861Z,6.20
2024-02-12T23:57:53.092Z,6.20
